Time;durP1;ratioP1;P1;durP2;ratioP2;P2;SDS_P1;SDS_P2;PMS_P1;PMS_P2;Temp;Humidity;BMP_temperature;BMP_pressure;BME280_temperature;BME280_humidity;BME280_pressure;Samples;Min_cycle;Max_cycle;Signal;HPM_P1;HPM_P2
2021/04/12 00:02:24;;;;;;;51.70;24.90;;;;;;;5.44;50.97;100432.66;116493;1216;22932;-57
2021/04/12 00:04:59;;;;;;;55.80;27.23;;;;;;;5.38;51.05;100433.45;116546;1216;23072;-57
2021/04/12 00:07:38;;;;;;;52.80;25.10;;;;;;;5.30;51.05;100437.17;116424;1216;23706;-56
2021/04/12 00:10:12;;;;;;;70.50;31.70;;;;;;;5.22;51.50;100438.16;116593;1215;22957;-56
2021/04/12 00:12:51;;;;;;;75.20;34.30;;;;;;;5.16;51.33;100433.58;116718;1212;22926;-57
2021/04/12 00:15:23;;;;;;;67.00;31.00;;;;;;;5.11;51.74;100441.44;116839;1212;22979;-57
2021/04/12 00:17:51;;;;;;;64.67;32.97;;;;;;;5.05;51.90;100442.23;117193;1209;22848;-57
2021/04/12 00:20:27;;;;;;;72.85;33.50;;;;;;;5.01;51.94;100440.98;117240;1209;22849;-56
2021/04/12 00:23:10;;;;;;;72.90;33.65;;;;;;;4.98;51.55;100435.97;117200;1209;23297;-56
2021/04/12 00:25:51;;;;;;;55.85;30.50;;;;;;;5.00;50.19;100438.48;117233;1209;22889;-58
2021/04/12 00:28:30;;;;;;;63.20;30.00;;;;;;;5.03;50.41;100428.12;117221;1209;22843;-56
2021/04/12 00:31:13;;;;;;;69.00;30.53;;;;;;;5.06;50.52;100419.59;117224;1209;22898;-57
2021/04/12 00:34:15;;;;;;;60.40;28.20;;;;;;;5.10;51.01;100417.33;117239;1212;22999;-57
2021/04/12 00:37:03;;;;;;;57.50;28.10;;;;;;;5.10;50.98;100420.86;117008;1211;23064;-57
2021/04/12 00:39:48;;;;;;;46.65;22.70;;;;;;;5.08;50.51;100420.23;117218;1212;23604;-57
2021/04/12 00:42:34;;;;;;;45.87;23.50;;;;;;;5.12;49.13;100428.77;117144;1212;23814;-57
2021/04/12 00:45:34;;;;;;;42.50;22.70;;;;;;;5.24;47.51;100421.76;117221;1212;22873;-57
2021/04/12 00:48:28;;;;;;;35.70;19.90;;;;;;;5.48;47.14;100412.30;117131;1211;23808;-57
2021/04/12 00:51:05;;;;;;;46.00;24.10;;;;;;;5.63;47.94;100415.65;117209;1211;22855;-58
2021/04/12 00:54:06;;;;;;;43.35;23.35;;;;;;;5.69;48.61;100414.84;117195;1212;22919;-59
2021/04/12 00:57:25;;;;;;;51.60;24.55;;;;;;;5.68;49.04;100418.58;117206;1212;22864;-59
2021/04/12 01:00:02;;;;;;;51.60;26.15;;;;;;;5.63;48.86;100421.05;116546;1216;22880;-59
2021/04/12 01:02:37;;;;;;;53.00;26.80;;;;;;;5.59;49.11;100411.70;116457;1216;23143;-59
2021/04/12 01:05:29;;;;;;;51.80;26.80;;;;;;;5.55;48.81;100422.09;116462;1215;23087;-59
2021/04/12 01:08:19;;;;;;;43.85;25.55;;;;;;;5.50;49.83;100404.80;116583;1215;22861;-59
2021/04/12 01:11:05;;;;;;;42.60;23.90;;;;;;;5.42;50.30;100418.52;116579;1215;22997;-59
2021/04/12 01:13:38;;;;;;;54.80;28.00;;;;;;;5.34;50.12;100414.94;116545;1216;22901;-59
2021/04/12 01:16:34;;;;;;;47.85;26.85;;;;;;;5.26;50.67;100412.42;116586;1215;22859;-59
2021/04/12 01:19:23;;;;;;;50.85;26.80;;;;;;;5.18;51.00;100409.07;116582;1215;22889;-59
2021/04/12 01:21:50;;;;;;;50.70;26.15;;;;;;;5.11;51.28;100406.33;116579;1215;23181;-58
2021/04/12 01:24:43;;;;;;;46.25;25.85;;;;;;;5.03;51.59;100398.41;116547;1216;22860;-59
2021/04/12 01:27:25;;;;;;;45.80;24.30;;;;;;;4.97;50.65;100404.59;116595;1215;22955;-58
2021/04/12 01:30:08;;;;;;;44.10;23.50;;;;;;;4.95;50.55;100393.16;116572;1215;22959;-59
2021/04/12 01:33:09;;;;;;;42.50;22.10;;;;;;;4.94;51.24;100396.89;116600;1216;23873;-58
2021/04/12 01:36:16;;;;;;;54.30;25.90;;;;;;;4.88;51.91;100387.74;116692;1209;23042;-57
2021/04/12 01:39:22;;;;;;;43.13;22.43;;;;;;;4.78;52.32;100379.15;117250;1209;22939;-58
2021/04/12 01:42:11;;;;;;;46.55;24.50;;;;;;;4.70;52.30;100383.89;117249;1208;22867;-58
2021/04/12 01:44:47;;;;;;;46.65;25.55;;;;;;;4.61;52.64;100380.53;117196;1209;22868;-58
2021/04/12 01:47:52;;;;;;;43.50;24.40;;;;;;;4.53;52.88;100376.10;117238;1209;22905;-58
2021/04/12 01:50:41;;;;;;;43.35;23.50;;;;;;;4.43;53.26;100377.49;117241;1209;22881;-57
2021/04/12 01:53:28;;;;;;;49.25;25.70;;;;;;;4.37;53.29;100370.17;117239;1209;23687;-57
2021/04/12 01:56:37;;;;;;;42.48;24.25;;;;;;;4.30;54.21;100364.75;117205;1209;22865;-57
2021/04/12 01:59:13;;;;;;;42.65;24.20;;;;;;;4.23;54.17;100361.16;116847;1212;24722;-57
2021/04/12 02:02:13;;;;;;;47.87;23.17;;;;;;;4.17;54.50;100362.80;116889;1212;22893;-57
2021/04/12 02:05:18;;;;;;;47.50;24.10;;;;;;;4.08;54.82;100366.64;116955;1212;22850;-57
2021/04/12 02:08:06;;;;;;;46.37;25.20;;;;;;;3.99;55.59;100359.73;116964;1212;23047;-57
2021/04/12 02:10:40;;;;;;;45.30;25.70;;;;;;;3.93;55.61;100355.11;116922;1212;23463;-57
2021/04/12 02:13:46;;;;;;;44.50;25.10;;;;;;;3.89;56.07;100349.30;116935;1212;23410;-57
2021/04/12 02:16:51;;;;;;;49.70;27.50;;;;;;;3.88;55.89;100347.63;116926;1212;23548;-57
2021/04/12 02:19:28;;;;;;;55.70;28.50;;;;;;;3.88;55.27;100344.09;116906;1212;23055;-57
2021/04/12 02:21:58;;;;;;;50.80;27.60;;;;;;;3.89;53.94;100343.06;116883;1212;22953;-57
2021/04/12 02:24:51;;;;;;;53.90;28.85;;;;;;;4.06;52.47;100351.68;116930;1212;22881;-57
2021/04/12 02:28:00;;;;;;;58.45;27.20;;;;;;;4.34;51.16;100347.12;116875;1212;22980;-57
2021/04/12 02:30:41;;;;;;;57.77;28.67;;;;;;;4.75;50.24;100349.05;116825;1212;23670;-57
2021/04/12 02:33:27;;;;;;;59.90;28.55;;;;;;;5.07;49.28;100348.33;116945;1212;22989;-57
2021/04/12 02:36:18;;;;;;;69.65;29.25;;;;;;;5.37;48.83;100345.31;116941;1212;22884;-57
2021/04/12 02:38:55;;;;;;;72.65;33.55;;;;;;;5.62;48.11;100338.32;116567;1215;22987;-57
2021/04/12 02:41:39;;;;;;;80.30;40.90;;;;;;;5.84;47.05;100341.66;116585;1216;23021;-57
2021/04/12 02:44:12;;;;;;;95.20;45.40;;;;;;;6.05;46.57;100338.80;116637;1216;22934;-57
2021/04/12 02:46:49;;;;;;;94.00;45.20;;;;;;;6.22;46.26;100333.76;116567;1215;22952;-57
2021/04/12 02:49:46;;;;;;;81.50;42.70;;;;;;;6.36;45.74;100329.99;116598;1216;22953;-57
2021/04/12 02:52:37;;;;;;;80.75;40.55;;;;;;;6.48;45.80;100325.63;116598;1216;22955;-57
2021/04/12 02:55:33;;;;;;;88.65;43.85;;;;;;;6.59;45.48;100316.84;116494;1216;22993;-57
2021/04/12 02:58:43;;;;;;;89.95;42.35;;;;;;;6.67;45.03;100322.02;116540;1222;22915;-58
2021/04/12 03:01:48;;;;;;;81.90;39.70;;;;;;;6.77;45.56;100321.58;116401;1218;22940;-57
2021/04/12 03:04:47;;;;;;;84.70;43.60;;;;;;;6.78;44.67;100320.52;116376;1218;23061;-57
2021/04/12 03:07:19;;;;;;;84.20;43.10;;;;;;;6.80;44.00;100315.72;116435;1215;22849;-57
2021/04/12 03:10:17;;;;;;;78.00;40.40;;;;;;;6.83;44.16;100315.30;116590;1215;23609;-57
2021/04/12 03:12:45;;;;;;;73.50;39.30;;;;;;;6.84;44.30;100308.83;116507;1215;22960;-57
2021/04/12 03:15:27;;;;;;;85.05;42.95;;;;;;;6.87;43.84;100304.87;116645;1212;23093;-57
2021/04/12 03:18:04;;;;;;;73.03;41.50;;;;;;;6.88;43.81;100301.95;116918;1212;24344;-57
2021/04/12 03:20:44;;;;;;;72.50;38.00;;;;;;;6.87;43.82;100307.58;116959;1212;22884;-57
2021/04/12 03:23:18;;;;;;;71.80;34.60;;;;;;;6.86;44.30;100301.33;116937;1212;22969;-57
2021/04/12 03:25:51;;;;;;;65.20;36.10;;;;;;;6.86;43.67;100305.91;116941;1212;22931;-57
2021/04/12 03:28:37;;;;;;;67.50;36.35;;;;;;;6.85;44.01;100304.25;116946;1212;24913;-57
2021/04/12 03:31:26;;;;;;;65.00;34.90;;;;;;;6.84;44.27;100308.83;116926;1212;22999;-56
2021/04/12 03:34:21;;;;;;;62.85;34.20;;;;;;;6.81;44.78;100306.55;116928;1212;22876;-57
2021/04/12 03:36:55;;;;;;;62.70;33.70;;;;;;;6.80;44.71;100304.88;116939;1212;23076;-57
2021/04/12 03:39:27;;;;;;;62.15;33.30;;;;;;;6.80;44.88;100304.88;117174;1209;22923;-57
2021/04/12 03:42:04;;;;;;;65.97;33.77;;;;;;;6.82;44.55;100299.25;117259;1209;22848;-57
2021/04/12 03:44:56;;;;;;;56.85;33.03;;;;;;;6.84;44.91;100306.13;117220;1209;22929;-57
2021/04/12 03:47:37;;;;;;;56.65;31.55;;;;;;;6.87;45.04;100305.70;117264;1209;23381;-57
2021/04/12 03:50:36;;;;;;;53.85;31.40;;;;;;;6.92;45.27;100302.36;117242;1209;22967;-57
2021/04/12 03:53:41;;;;;;;51.40;29.40;;;;;;;6.96;44.90;100301.69;117270;1209;22882;-57
2021/04/12 03:56:47;;;;;;;52.85;29.90;;;;;;;6.99;44.64;100295.85;117225;1209;22939;-57
2021/04/12 03:59:53;;;;;;;58.80;31.55;;;;;;;7.02;45.26;100298.14;116903;1212;22991;-57
2021/04/12 04:02:41;;;;;;;53.90;29.80;;;;;;;7.06;44.78;100295.83;116619;1215;23655;-57
2021/04/12 04:05:13;;;;;;;64.47;31.77;;;;;;;7.08;44.61;100291.00;116574;1216;23023;-57
2021/04/12 04:08:05;;;;;;;48.90;29.25;;;;;;;7.10;45.36;100292.45;116579;1215;22875;-57
2021/04/12 04:10:53;;;;;;;50.45;29.85;;;;;;;7.15;44.93;100286.39;116527;1216;22916;-57
2021/04/12 04:13:45;;;;;;;55.00;29.50;;;;;;;7.19;45.09;100292.22;116603;1215;22849;-57
2021/04/12 04:16:48;;;;;;;57.20;30.40;;;;;;;7.21;45.19;100295.55;116612;1215;22908;-57
2021/04/12 04:19:37;;;;;;;58.30;30.40;;;;;;;7.23;45.11;100291.55;116484;1216;22963;-57
2021/04/12 04:22:25;;;;;;;50.05;28.43;;;;;;;7.28;45.00;100293.61;116559;1215;23064;-57
2021/04/12 04:25:19;;;;;;;44.25;26.35;;;;;;;7.32;45.68;100295.68;116639;1215;22888;-57
2021/04/12 04:27:50;;;;;;;54.30;30.00;;;;;;;7.41;45.32;100291.65;116554;1215;22878;-62
2021/04/12 04:30:52;;;;;;;56.15;29.00;;;;;;;7.50;45.55;100288.69;116595;1215;22980;-62
2021/04/12 04:33:29;;;;;;;52.70;28.95;;;;;;;7.58;45.64;100291.95;116621;1215;23091;-62
2021/04/12 04:36:06;;;;;;;51.23;29.43;;;;;;;7.63;45.52;100291.31;116711;1212;22873;-62
2021/04/12 04:38:57;;;;;;;49.37;27.97;;;;;;;7.69;46.05;100293.95;116983;1209;22865;-62
2021/04/12 04:41:35;;;;;;;49.63;29.37;;;;;;;7.75;45.78;100292.25;117221;1209;24022;-62
2021/04/12 04:44:24;;;;;;;46.20;27.30;;;;;;;7.79;46.39;100283.43;117279;1208;22847;-62
2021/04/12 04:46:58;;;;;;;50.50;31.05;;;;;;;7.83;45.98;100291.97;117240;1209;22913;-62
2021/04/12 04:49:35;;;;;;;46.90;29.10;;;;;;;7.87;45.98;100289.64;117254;1209;22878;-62
2021/04/12 04:52:29;;;;;;;57.53;31.87;;;;;;;7.90;46.50;100281.91;117236;1208;22992;-62
2021/04/12 04:55:27;;;;;;;53.87;29.80;;;;;;;7.96;47.08;100282.88;117215;1209;22875;-62
2021/04/12 04:58:08;;;;;;;;;;;;;;;8.02;46.77;100282.83;117262;1217;22933;-59
2021/04/12 05:00:41;;;;;;;51.60;29.40;;;;;;;8.08;46.95;100284.64;117196;1209;21467;-60
2021/04/12 05:03:24;;;;;;;61.20;29.75;;;;;;;8.15;47.83;100279.16;117229;1209;22852;-59
2021/04/12 05:06:16;;;;;;;54.10;29.10;;;;;;;8.23;47.70;100281.57;117247;1209;22882;-59
2021/04/12 05:09:23;;;;;;;52.30;29.55;;;;;;;8.33;48.41;100275.68;117214;1209;22892;-59
2021/04/12 05:12:00;;;;;;;50.70;30.00;;;;;;;8.41;48.41;100270.77;117244;1209;22966;-59
2021/04/12 05:14:55;;;;;;;53.80;28.77;;;;;;;8.50;47.57;100260.45;117255;1209;22949;-60
2021/04/12 05:17:38;;;;;;;51.23;29.10;;;;;;;8.58;47.71;100265.58;117233;1209;22942;-61
2021/04/12 05:20:53;;;;;;;52.07;29.73;;;;;;;8.66;47.49;100262.54;117234;1209;23816;-61
2021/04/12 05:24:01;;;;;;;54.30;29.45;;;;;;;8.78;46.90;100259.91;116909;1213;22888;-60
2021/04/12 05:26:59;;;;;;;46.50;28.50;;;;;;;8.87;46.60;100253.09;116852;1213;22871;-59
2021/04/12 05:29:57;;;;;;;50.90;27.90;;;;;;;8.94;46.85;100253.86;116936;1212;22829;-59
2021/04/12 05:32:47;;;;;;;48.10;27.50;;;;;;;9.04;46.52;100243.25;116865;1212;23025;-60
2021/04/12 05:35:21;;;;;;;50.25;28.20;;;;;;;9.13;46.67;100244.58;116910;1212;22942;-59
2021/04/12 05:38:26;;;;;;;56.13;29.60;;;;;;;9.21;46.09;100241.55;116943;1212;23085;-59
2021/04/12 05:41:12;;;;;;;46.15;28.80;;;;;;;9.31;46.04;100237.42;116951;1212;22880;-59
2021/04/12 05:44:21;;;;;;;49.40;27.90;;;;;;;9.39;46.27;100232.47;116867;1212;24013;-60
2021/04/12 05:46:57;;;;;;;55.23;27.83;;;;;;;9.47;45.40;100226.72;116568;1214;22989;-61
2021/04/12 05:49:45;;;;;;;45.30;27.60;;;;;;;9.52;44.94;100229.54;116537;1215;22888;-59
2021/04/12 05:52:34;;;;;;;48.97;26.83;;;;;;;9.56;44.66;100229.91;116575;1215;22943;-60
2021/04/12 05:55:18;;;;;;;49.35;27.45;;;;;;;9.62;45.01;100241.76;116574;1215;22942;-60
2021/04/12 05:58:19;;;;;;;50.70;28.25;;;;;;;9.67;44.34;100248.14;116578;1215;23582;-60
2021/04/12 06:01:08;;;;;;;45.70;28.30;;;;;;;9.72;45.34;100242.83;116917;1212;22913;-60
2021/04/12 06:03:51;;;;;;;52.45;27.30;;;;;;;9.79;45.09;100242.73;116963;1212;22805;-59
2021/04/12 06:06:37;;;;;;;46.70;27.40;;;;;;;9.86;45.53;100237.99;116918;1212;22974;-59
2021/04/12 06:09:44;;;;;;;44.50;27.60;;;;;;;9.93;44.84;100236.83;116911;1212;23074;-60
2021/04/12 06:12:35;;;;;;;48.40;28.07;;;;;;;9.99;44.02;100224.14;116907;1212;22979;-59
2021/04/12 06:15:14;;;;;;;42.65;27.80;;;;;;;10.05;43.79;100239.55;116866;1212;22900;-62
2021/04/12 06:17:58;;;;;;;49.90;27.00;;;;;;;10.08;44.01;100230.91;117057;1209;23809;-59
2021/04/12 06:21:03;;;;;;;43.30;26.40;;;;;;;10.13;43.92;100231.01;117211;1209;22901;-59
2021/04/12 06:24:08;;;;;;;46.03;26.20;;;;;;;10.18;43.84;100224.86;117208;1209;23937;-59
2021/04/12 06:27:24;;;;;;;46.70;25.40;;;;;;;10.24;43.55;100227.47;114745;1209;25547;-58
2021/04/12 06:29:58;;;;;;;48.55;26.30;;;;;;;10.35;43.18;100222.27;116927;1212;23373;-59
2021/04/12 06:32:39;;;;;;;56.00;27.00;;;;;;;10.42;43.25;100228.40;116922;1212;22856;-59
2021/04/12 06:35:12;;;;;;;41.95;26.15;;;;;;;10.52;42.75;100229.47;116947;1212;22871;-59
2021/04/12 06:37:50;;;;;;;40.60;24.30;;;;;;;10.61;42.11;100227.19;116840;1212;22865;-59
2021/04/12 06:40:26;;;;;;;42.45;22.30;;;;;;;10.68;41.82;100227.86;116934;1212;23183;-59
2021/04/12 06:43:31;;;;;;;43.30;22.90;;;;;;;10.74;41.39;100229.63;116918;1212;22907;-60
2021/04/12 06:46:32;;;;;;;39.70;23.65;;;;;;;10.81;41.97;100222.16;116869;1212;24213;-59
2021/04/12 06:49:38;;;;;;;41.00;23.40;;;;;;;10.92;41.48;100215.83;116863;1212;23165;-59
2021/04/12 06:52:33;;;;;;;38.10;22.47;;;;;;;11.03;41.51;100214.11;116933;1212;22907;-59
2021/04/12 06:55:23;;;;;;;38.70;22.20;;;;;;;11.10;41.33;100209.35;116945;1212;22976;-59
2021/04/12 06:58:00;;;;;;;32.60;20.47;;;;;;;11.18;41.32;100210.84;116956;1212;23184;-61
2021/04/12 07:00:47;;;;;;;;;;;;;;;11.27;41.52;100199.27;116979;1216;22977;-61
2021/04/12 07:03:53;;;;;;;33.90;18.40;;;;;;;11.40;41.01;100202.79;117264;1209;21415;-61
2021/04/12 07:06:40;;;;;;;37.07;18.70;;;;;;;11.50;40.82;100192.86;117259;1209;22863;-61
2021/04/12 07:09:50;;;;;;;29.10;18.45;;;;;;;11.65;40.00;100193.11;117225;1209;23502;-61
2021/04/12 07:12:31;;;;;;;25.23;16.93;;;;;;;11.77;39.43;100192.22;117211;1209;22870;-61
2021/04/12 07:15:05;;;;;;;27.77;17.53;;;;;;;11.81;39.70;100183.30;117240;1209;22779;-61
2021/04/12 07:17:42;;;;;;;30.23;18.63;;;;;;;11.89;39.94;100182.03;117251;1209;22955;-61
2021/04/12 07:20:48;;;;;;;30.23;17.18;;;;;;;11.96;39.45;100180.80;117251;1209;22996;-61
2021/04/12 07:23:37;;;;;;;25.43;14.95;;;;;;;12.10;38.38;100185.90;117254;1208;22844;-61
2021/04/12 07:26:08;;;;;;;39.05;16.10;;;;;;;12.19;38.51;100181.64;117248;1209;22920;-59
2021/04/12 07:28:49;;;;;;;30.83;17.58;;;;;;;12.27;38.05;100176.55;117262;1208;23752;-59
2021/04/12 07:31:41;;;;;;;32.50;16.80;;;;;;;12.34;37.94;100170.92;117258;1209;23013;-59
2021/04/12 07:34:31;;;;;;;32.20;15.37;;;;;;;12.41;38.12;100176.21;117241;1208;22866;-59
2021/04/12 07:37:19;;;;;;;29.38;16.63;;;;;;;12.47;37.57;100169.70;117291;1208;23693;-59
2021/04/12 07:39:55;;;;;;;23.75;16.15;;;;;;;12.53;37.11;100174.17;117226;1209;24123;-59
2021/04/12 07:42:45;;;;;;;25.40;15.67;;;;;;;12.57;36.30;100161.63;117226;1209;22816;-59
2021/04/12 07:45:31;;;;;;;26.88;17.00;;;;;;;12.58;36.57;100166.84;117221;1209;22805;-60
2021/04/12 07:48:16;;;;;;;28.57;16.83;;;;;;;12.61;36.17;100157.30;117281;1209;23016;-59
2021/04/12 07:51:32;;;;;;;31.80;17.43;;;;;;;12.65;36.57;100166.66;117204;1209;25358;-59
2021/04/12 07:54:19;;;;;;;30.15;16.18;;;;;;;12.70;36.34;100162.05;116923;1212;22976;-57
2021/04/12 07:57:05;;;;;;;28.87;16.83;;;;;;;12.70;36.73;100156.59;116956;1212;22875;-59
2021/04/12 08:00:10;;;;;;;24.10;14.83;;;;;;;12.73;36.52;100157.98;116851;1212;22963;-60
2021/04/12 08:03:17;;;;;;;28.30;17.03;;;;;;;12.79;36.54;100147.94;116962;1212;22932;-60
2021/04/12 08:06:23;;;;;;;33.80;17.30;;;;;;;12.86;36.33;100143.08;116511;1215;22991;-60
2021/04/12 08:09:28;;;;;;;34.10;17.30;;;;;;;12.91;37.01;100146.70;116551;1215;22869;-60
2021/04/12 08:12:01;;;;;;;28.55;16.30;;;;;;;13.00;36.59;100136.11;116535;1215;22883;-59
2021/04/12 08:15:06;;;;;;;34.40;17.50;;;;;;;13.05;36.94;100136.17;116552;1215;23803;-60
2021/04/12 08:17:54;;;;;;;32.10;15.70;;;;;;;13.14;35.58;100134.60;116579;1216;23993;-59
2021/04/12 08:20:54;;;;;;;31.60;16.90;;;;;;;13.16;36.06;100134.38;116561;1219;22951;-60
2021/04/12 08:23:41;;;;;;;24.80;15.60;;;;;;;13.14;35.28;100134.60;116338;1218;22906;-60
2021/04/12 08:26:14;;;;;;;25.07;15.83;;;;;;;13.11;35.20;100129.67;114777;1221;23459;-60
2021/04/12 08:29:15;;;;;;;28.38;16.88;;;;;;;13.10;36.26;100131.58;116363;1215;22885;-59
2021/04/12 08:31:51;;;;;;;28.40;16.80;;;;;;;13.10;36.24;100133.49;116588;1215;22819;-60
2021/04/12 08:34:52;;;;;;;31.00;16.90;;;;;;;13.08;36.19;100132.92;116608;1215;23387;-59
2021/04/12 08:37:35;;;;;;;27.13;16.33;;;;;;;13.03;36.64;100133.69;116568;1215;22982;-60
2021/04/12 08:40:20;;;;;;;24.73;14.95;;;;;;;13.03;36.58;100130.13;116804;1212;23996;-60
2021/04/12 08:42:58;;;;;;;24.50;16.00;;;;;;;13.01;36.48;100122.17;116921;1212;22993;-59
2021/04/12 08:46:03;;;;;;;27.53;15.98;;;;;;;13.02;36.33;100114.80;116980;1212;23774;-60
2021/04/12 08:48:53;;;;;;;27.43;16.63;;;;;;;12.99;36.49;100107.93;116966;1212;23016;-60
2021/04/12 08:51:58;;;;;;;28.73;15.90;;;;;;;12.96;36.80;100103.00;116937;1212;24165;-59
2021/04/12 08:56:17;;;;;;;33.45;17.50;;;;;;;12.92;37.27;100088.19;113447;1205;23108;-58
2021/04/12 08:59:00;;;;;;;25.65;16.38;;;;;;;12.91;37.48;100083.80;117283;1208;22953;-58
2021/04/12 09:01:46;;;;;;;30.50;16.18;;;;;;;12.91;37.54;100089.27;117381;1212;22823;-59
2021/04/12 09:04:32;;;;;;;29.00;16.88;;;;;;;12.92;38.00;100087.36;117428;1208;22933;-59
2021/04/12 09:07:03;;;;;;;27.77;16.17;;;;;;;12.90;37.71;100084.88;117236;1209;23538;-59
2021/04/12 09:09:58;;;;;;;30.10;15.30;;;;;;;12.88;37.79;100080.75;117355;1208;22859;-59
2021/04/12 09:12:51;;;;;;;28.60;17.93;;;;;;;12.87;38.10;100087.30;117338;1209;22830;-59
2021/04/12 09:15:19;;;;;;;28.48;16.03;;;;;;;12.84;38.23;100076.91;117455;1208;23031;-59
2021/04/12 09:18:14;;;;;;;28.40;16.35;;;;;;;12.80;38.24;100076.59;117360;1209;22864;-58
2021/04/12 09:20:42;;;;;;;25.03;14.23;;;;;;;12.78;37.84;100075.19;117267;1208;22827;-59
2021/04/12 09:23:43;;;;;;;25.80;13.85;;;;;;;12.74;37.28;100069.41;117325;1209;23906;-59
2021/04/12 09:26:45;;;;;;;25.03;14.57;;;;;;;12.71;37.19;100061.72;117439;1208;22871;-59
2021/04/12 09:29:15;;;;;;;21.13;12.60;;;;;;;12.67;36.66;100058.70;117317;1212;22939;-59
2021/04/12 09:31:59;;;;;;;29.53;13.67;;;;;;;12.64;36.96;100051.01;117347;1209;22842;-59
2021/04/12 09:34:42;;;;;;;18.43;10.80;;;;;;;12.63;36.86;100060.28;117197;1208;22916;-59
2021/04/12 09:37:16;;;;;;;17.13;8.90;;;;;;;12.63;35.99;100052.09;117227;1212;22836;-59
2021/04/12 09:40:09;;;;;;;21.98;11.25;;;;;;;12.62;36.09;100038.67;117255;1212;22912;-59
2021/04/12 09:42:56;;;;;;;20.00;9.73;;;;;;;12.62;35.66;100036.77;117299;1208;22832;-59
2021/04/12 09:45:43;;;;;;;14.23;8.73;;;;;;;12.64;35.93;100036.51;117274;1209;22885;-59
2021/04/12 09:48:13;;;;;;;32.23;11.17;;;;;;;12.67;36.16;100034.09;117201;1209;22868;-59
2021/04/12 09:51:03;;;;;;;17.08;10.65;;;;;;;12.70;36.92;100028.08;117260;1209;22910;-59
2021/04/12 09:53:40;;;;;;;21.53;13.37;;;;;;;12.76;36.72;100031.70;117338;1209;22866;-59
2021/04/12 09:56:36;;;;;;;18.20;10.67;;;;;;;12.78;37.28;100020.50;117348;1208;22804;-59
2021/04/12 09:59:34;;;;;;;18.25;11.68;;;;;;;12.84;37.45;100022.20;117312;1209;22845;-59
2021/04/12 10:02:31;;;;;;;16.63;11.03;;;;;;;12.87;36.87;100011.55;117333;1209;22840;-59
2021/04/12 10:05:36;;;;;;;23.35;10.98;;;;;;;12.90;36.38;100010.21;117298;1209;22881;-59
2021/04/12 10:08:34;;;;;;;19.47;10.50;;;;;;;12.93;37.06;100006.95;113362;1212;23135;-59
2021/04/12 10:11:11;;;;;;;;;;;;;;;12.95;36.48;100007.53;117242;1216;23036;-60
2021/04/12 10:14:18;;;;;;;16.70;9.33;;;;;;;12.95;36.14;100013.00;117398;1208;21463;-61
2021/04/12 10:16:58;;;;;;;15.13;9.00;;;;;;;12.93;35.99;100009.70;117272;1209;22874;-64
2021/04/12 10:19:31;;;;;;;16.85;9.73;;;;;;;12.92;36.53;100006.13;117249;1212;23702;-64
2021/04/12 10:22:03;;;;;;;13.85;8.80;;;;;;;12.92;36.65;99999.84;117266;1212;22957;-63
2021/04/12 10:24:57;;;;;;;13.73;8.65;;;;;;;12.93;36.15;100017.90;117213;1208;22957;-63
2021/04/12 10:27:36;;;;;;;15.95;6.80;;;;;;;12.89;35.15;99997.62;117245;1208;22833;-63
2021/04/12 10:30:10;;;;;;;12.40;7.05;;;;;;;12.88;35.54;100002.27;117205;1207;23026;-60
2021/04/12 10:33:02;;;;;;;17.25;8.45;;;;;;;12.86;35.80;100001.70;117215;1209;23537;-60
2021/04/12 10:35:49;;;;;;;14.55;8.30;;;;;;;12.83;36.02;100002.24;117238;1209;23581;-59
2021/04/12 10:38:33;;;;;;;14.45;7.78;;;;;;;12.83;36.88;100001.41;117261;1208;22931;-58
2021/04/12 10:41:27;;;;;;;12.80;6.98;;;;;;;12.82;38.87;99999.77;117249;1209;22817;-59
2021/04/12 10:44:28;;;;;;;11.80;7.78;;;;;;;12.79;39.56;100001.11;117224;1212;22864;-59
2021/04/12 10:47:06;;;;;;;15.63;8.30;;;;;;;12.73;40.98;100005.70;117321;1209;22935;-59
2021/04/12 10:49:37;;;;;;;14.75;7.83;;;;;;;12.68;41.31;99999.38;117223;1209;23687;-59
2021/04/12 10:52:14;;;;;;;19.65;8.03;;;;;;;12.62;41.66;100001.23;117289;1206;22844;-59
2021/04/12 10:55:04;;;;;;;14.17;7.20;;;;;;;12.56;43.04;100004.98;117774;1206;22961;-59
2021/04/12 10:57:36;;;;;;;11.15;7.10;;;;;;;12.54;44.50;100006.35;117625;1206;23335;-59
2021/04/12 11:00:19;;;;;;;14.83;6.63;;;;;;;12.52;44.92;100006.61;117660;1206;22928;-59
2021/04/12 11:02:52;;;;;;;12.90;7.10;;;;;;;12.51;45.00;100006.86;117777;1206;23705;-59
2021/04/12 11:05:22;;;;;;;17.18;8.48;;;;;;;12.51;44.43;100006.86;117779;1206;22892;-59
2021/04/12 11:07:51;;;;;;;15.25;7.38;;;;;;;12.51;43.90;100002.22;117473;1206;22869;-58
2021/04/12 11:10:37;;;;;;;14.63;7.93;;;;;;;12.53;43.76;100002.80;117745;1205;22916;-59
2021/04/12 11:13:30;;;;;;;17.05;8.75;;;;;;;12.58;44.14;100002.82;117835;1206;23009;-59
2021/04/12 11:16:08;;;;;;;16.50;8.63;;;;;;;12.58;43.74;100000.09;117766;1206;22909;-64
2021/04/12 11:19:15;;;;;;;12.30;7.88;;;;;;;12.59;43.85;99990.81;117755;1205;22967;-64
2021/04/12 11:22:06;;;;;;;14.75;7.43;;;;;;;12.56;43.53;99995.96;117702;1205;22856;-64
2021/04/12 11:24:57;;;;;;;19.90;12.63;;;;;;;12.55;43.54;99991.61;117524;1206;23702;-64
2021/04/12 11:27:40;;;;;;;19.40;11.20;;;;;;;12.51;44.56;99991.29;117743;1209;22841;-64
2021/04/12 11:30:24;;;;;;;24.73;13.57;;;;;;;12.45;45.54;99994.22;117788;1206;22923;-63
2021/04/12 11:33:18;;;;;;;28.10;11.80;;;;;;;12.38;48.17;100000.73;117758;1205;23019;-63
2021/04/12 11:36:05;;;;;;;23.93;11.90;;;;;;;12.24;48.87;99999.50;117727;1206;23785;-63
2021/04/12 11:38:40;;;;;;;35.05;16.18;;;;;;;12.12;49.87;99996.06;117763;1206;22885;-63
2021/04/12 11:41:22;;;;;;;19.40;11.10;;;;;;;12.01;50.62;100003.33;117811;1206;23651;-64
2021/04/12 11:43:54;;;;;;;18.00;10.73;;;;;;;11.92;51.99;100004.05;117692;1206;23368;-64
2021/04/12 11:46:30;;;;;;;21.17;12.07;;;;;;;11.80;53.66;99995.16;115494;1209;24588;-63
2021/04/12 11:49:24;;;;;;;24.60;13.33;;;;;;;11.68;54.42;99995.27;117724;1206;23017;-64
2021/04/12 11:52:06;;;;;;;21.70;13.60;;;;;;;11.55;56.21;99996.44;117798;1206;22947;-63
2021/04/12 11:54:49;;;;;;;26.30;13.97;;;;;;;11.40;57.28;99996.23;117645;1206;22987;-63
2021/04/12 11:57:28;;;;;;;27.25;16.40;;;;;;;11.24;58.90;99997.11;117660;1206;22830;-64
2021/04/12 12:00:06;;;;;;;28.90;16.47;;;;;;;11.08;59.76;99995.23;117607;1210;23029;-64
2021/04/12 12:02:53;;;;;;;25.90;17.53;;;;;;;10.97;60.47;99999.68;117683;1205;23931;-64
2021/04/12 12:05:24;;;;;;;33.15;21.60;;;;;;;10.86;61.30;100000.60;117516;1206;23577;-64
2021/04/12 12:07:54;;;;;;;33.35;21.25;;;;;;;10.74;61.85;99997.97;117723;1205;23540;-64
2021/04/12 12:10:25;;;;;;;43.73;21.57;;;;;;;10.61;62.27;99990.11;117758;1206;23731;-64
2021/04/12 12:13:17;;;;;;;34.57;21.07;;;;;;;10.55;63.00;99996.53;117825;1206;22925;-63
2021/04/12 12:16:09;;;;;;;34.30;20.20;;;;;;;10.50;63.72;99993.74;116711;1209;23132;-63
2021/04/12 12:18:41;;;;;;;36.00;18.50;;;;;;;10.45;63.87;99996.37;113581;1209;23125;-63
2021/04/12 12:21:24;;;;;;;39.60;18.65;;;;;;;10.38;64.31;99988.37;117739;1207;22964;-64
2021/04/12 12:24:00;;;;;;;31.10;17.65;;;;;;;10.33;65.08;99985.54;117746;1207;24591;-64
2021/04/12 12:26:50;;;;;;;28.03;16.60;;;;;;;10.28;65.14;99979.99;117768;1206;22884;-63
2021/04/12 12:29:26;;;;;;;28.67;14.87;;;;;;;10.24;65.54;99976.13;117560;1206;23044;-63
2021/04/12 12:32:06;;;;;;;24.00;13.90;;;;;;;10.21;65.74;99982.88;117784;1209;22847;-64
2021/04/12 12:34:59;;;;;;;19.37;13.97;;;;;;;10.14;66.00;99973.99;117777;1206;22825;-64
2021/04/12 12:37:33;;;;;;;19.70;12.65;;;;;;;10.09;65.87;99970.37;117768;1206;22909;-64
2021/04/12 12:40:08;;;;;;;22.00;12.17;;;;;;;10.04;65.99;99970.26;117769;1209;23019;-64